Time;durP1;ratioP1;P1;durP2;ratioP2;P2;SDS_P1;SDS_P2;PMS_P1;PMS_P2;Temp;Humidity;BMP_temperature;BMP_pressure;BME280_temperature;BME280_humidity;BME280_pressure;Samples;Min_cycle;Max_cycle;Signal;HPM_P1;HPM_P2
2022/06/15 00:00:44;;;;;;;5.50;1.33;;;;;;;;;;4955002;28;20480;-66
2022/06/15 00:03:12;;;;;;;4.85;1.30;;;;;;;;;;4962463;28;20412;-65
2022/06/15 00:05:42;;;;;;;8.95;1.50;;;;;;;;;;4958066;28;20531;-65
2022/06/15 00:08:10;;;;;;;9.65;1.70;;;;;;;;;;4962876;28;20465;-66
2022/06/15 00:10:39;;;;;;;6.22;1.40;;;;;;;;;;4960035;28;20030;-66
2022/06/15 00:13:07;;;;;;;5.13;1.23;;;;;;;;;;4967417;28;20040;-66
2022/06/15 00:15:35;;;;;;;5.90;1.30;;;;;;;;;;4966157;28;20030;-66
2022/06/15 00:18:02;;;;;;;5.20;1.23;;;;;;;;;;4960127;28;20035;-66
2022/06/15 00:20:29;;;;;;;5.55;1.40;;;;;;;;;;4959364;28;20511;-66
2022/06/15 00:22:57;;;;;;;8.40;1.42;;;;;;;;;;4960109;28;20426;-66
2022/06/15 00:25:24;;;;;;;6.10;1.10;;;;;;;;;;4966659;28;20034;-66
2022/06/15 00:27:50;;;;;;;4.65;1.30;;;;;;;;;;4964269;28;20046;-66
2022/06/15 00:30:21;;;;;;;5.82;1.33;;;;;;;;;;4949155;28;20037;-66
2022/06/15 00:32:48;;;;;;;4.72;1.30;;;;;;;;;;4960024;28;20081;-66
2022/06/15 00:35:16;;;;;;;5.65;1.30;;;;;;;;;;4966300;28;20030;-67
2022/06/15 00:37:44;;;;;;;9.07;1.52;;;;;;;;;;4962835;28;20026;-66
2022/06/15 00:40:11;;;;;;;7.95;1.33;;;;;;;;;;4967403;28;20065;-66
2022/06/15 00:42:38;;;;;;;8.05;1.65;;;;;;;;;;4965079;28;21253;-66
2022/06/15 00:45:05;;;;;;;7.53;1.30;;;;;;;;;;4968258;28;20031;-66
2022/06/15 00:47:36;;;;;;;6.90;1.33;;;;;;;;;;4965770;28;20061;-66
2022/06/15 00:50:23;;;;;;;7.05;1.27;;;;;;;;;;4964083;28;20133;-66
2022/06/15 00:52:55;;;;;;;6.05;1.30;;;;;;;;;;4943112;28;20046;-66
2022/06/15 00:55:29;;;;;;;5.47;1.08;;;;;;;;;;4964321;28;20039;-66
2022/06/15 00:57:55;;;;;;;7.57;1.42;;;;;;;;;;4964501;28;20465;-66
2022/06/15 01:00:22;;;;;;;4.80;1.15;;;;;;;;;;4954886;28;20057;-66
2022/06/15 01:02:49;;;;;;;9.57;1.40;;;;;;;;;;4962900;28;20073;-65
2022/06/15 01:05:23;;;;;;;7.50;1.65;;;;;;;;;;4965331;28;20014;-66
2022/06/15 01:08:04;;;;;;;7.70;1.25;;;;;;;;;;4958842;28;20560;-66
2022/06/15 01:10:30;;;;;;;7.03;1.42;;;;;;;;;;4949691;28;20027;-66
2022/06/15 01:13:10;;;;;;;5.63;1.17;;;;;;;;;;4964844;28;20034;-66
2022/06/15 01:15:59;;;;;;;3.03;1.00;;;;;;;;;;4968483;28;20410;-66
2022/06/15 01:18:29;;;;;;;7.47;1.23;;;;;;;;;;4962239;28;20046;-68
2022/06/15 01:20:58;;;;;;;3.83;1.15;;;;;;;;;;4962651;28;20285;-67
2022/06/15 01:23:41;;;;;;;7.68;1.63;;;;;;;;;;4966147;28;20181;-68
2022/06/15 01:26:26;;;;;;;6.20;1.40;;;;;;;;;;4964538;28;20081;-67
2022/06/15 01:28:54;;;;;;;8.20;1.58;;;;;;;;;;4898772;28;1805699;-67
2022/06/15 01:31:20;;;;;;;5.75;1.38;;;;;;;;;;4970278;28;20100;-68
2022/06/15 01:34:02;;;;;;;6.15;1.40;;;;;;;;;;4960461;28;20440;-68
2022/06/15 01:36:47;;;;;;;3.58;1.02;;;;;;;;;;4963475;28;20295;-67
2022/06/15 01:39:32;;;;;;;7.60;1.52;;;;;;;;;;4961906;28;20133;-67
2022/06/15 01:42:01;;;;;;;6.13;1.48;;;;;;;;;;4962291;28;20086;-67
2022/06/15 01:44:47;;;;;;;6.25;1.58;;;;;;;;;;4964193;28;20058;-68
2022/06/15 01:47:16;;;;;;;4.88;1.40;;;;;;;;;;4966283;28;20106;-68
2022/06/15 01:50:15;;;;;;;5.88;1.48;;;;;;;;;;4959651;28;20035;-68
2022/06/15 01:52:51;;;;;;;7.20;1.45;;;;;;;;;;4883051;29;20052;-67
2022/06/15 01:55:21;;;;;;;5.43;1.33;;;;;;;;;;4890160;29;20047;-67
2022/06/15 01:57:50;;;;;;;6.78;1.58;;;;;;;;;;4887511;29;20138;-68
2022/06/15 02:00:18;;;;;;;8.77;1.40;;;;;;;;;;4889188;29;20080;-67
2022/06/15 02:03:04;;;;;;;7.13;1.50;;;;;;;;;;4882856;29;20822;-68
2022/06/15 02:05:41;;;;;;;6.40;1.67;;;;;;;;;;4886919;29;20028;-67
2022/06/15 02:08:20;;;;;;;5.78;1.20;;;;;;;;;;4888940;29;20044;-67
2022/06/15 02:10:59;;;;;;;5.28;1.40;;;;;;;;;;4866331;29;20032;-67
2022/06/15 02:13:46;;;;;;;5.30;1.52;;;;;;;;;;4890745;29;20107;-67
2022/06/15 02:16:16;;;;;;;5.75;1.30;;;;;;;;;;4889588;29;20155;-68
2022/06/15 02:18:46;;;;;;;6.60;1.45;;;;;;;;;;4891833;29;20036;-68
2022/06/15 02:21:15;;;;;;;6.20;1.48;;;;;;;;;;4888762;29;20195;-67
2022/06/15 02:23:44;;;;;;;6.50;1.42;;;;;;;;;;4883298;29;20062;-69
2022/06/15 02:26:13;;;;;;;6.15;1.20;;;;;;;;;;4873090;29;20230;-67
2022/06/15 02:28:42;;;;;;;6.43;1.55;;;;;;;;;;4932649;28;20562;-67
2022/06/15 02:31:09;;;;;;;5.90;1.50;;;;;;;;;;4961931;28;20575;-67
2022/06/15 02:33:46;;;;;;;9.45;1.80;;;;;;;;;;4965355;28;20498;-67
2022/06/15 02:36:13;;;;;;;6.82;1.80;;;;;;;;;;4967399;28;20387;-67
2022/06/15 02:38:44;;;;;;;8.40;1.70;;;;;;;;;;4958830;28;20526;-69
2022/06/15 02:41:12;;;;;;;10.02;1.52;;;;;;;;;;4963876;28;20038;-68
2022/06/15 02:43:40;;;;;;;6.38;1.90;;;;;;;;;;4966649;28;20030;-69
2022/06/15 02:46:09;;;;;;;6.70;1.52;;;;;;;;;;4961999;28;20036;-67
2022/06/15 02:48:37;;;;;;;8.23;1.45;;;;;;;;;;4961173;28;20058;-67
2022/06/15 02:51:25;;;;;;;4.63;1.38;;;;;;;;;;4965884;28;20448;-69
2022/06/15 02:53:52;;;;;;;5.18;1.30;;;;;;;;;;4962698;28;20441;-66
2022/06/15 02:56:19;;;;;;;7.35;1.50;;;;;;;;;;4967718;28;20498;-67
2022/06/15 02:58:47;;;;;;;4.78;1.42;;;;;;;;;;4963763;28;20026;-67
2022/06/15 03:01:14;;;;;;;4.00;1.23;;;;;;;;;;4965461;28;20413;-67
2022/06/15 03:03:41;;;;;;;10.18;1.48;;;;;;;;;;4962943;28;20121;-67
2022/06/15 03:06:11;;;;;;;6.28;1.50;;;;;;;;;;4962601;28;20073;-66
2022/06/15 03:08:37;;;;;;;5.38;1.58;;;;;;;;;;4962943;28;20015;-67
2022/06/15 03:11:03;;;;;;;5.38;1.50;;;;;;;;;;4952806;28;20414;-67
2022/06/15 03:13:29;;;;;;;7.13;1.67;;;;;;;;;;4967567;28;20487;-67
2022/06/15 03:16:00;;;;;;;5.43;1.52;;;;;;;;;;4962540;28;20038;-67
2022/06/15 03:18:26;;;;;;;10.57;1.98;;;;;;;;;;4962032;28;20026;-67
2022/06/15 03:20:56;;;;;;;6.93;1.60;;;;;;;;;;4958944;28;20042;-67
2022/06/15 03:23:22;;;;;;;7.50;1.70;;;;;;;;;;4960077;28;20046;-67
2022/06/15 03:25:53;;;;;;;7.05;1.67;;;;;;;;;;4957679;28;20041;-67
2022/06/15 03:28:19;;;;;;;8.35;1.95;;;;;;;;;;4965018;28;20105;-67
2022/06/15 03:30:45;;;;;;;4.88;1.40;;;;;;;;;;4960273;28;20117;-67
2022/06/15 03:33:11;;;;;;;5.25;1.40;;;;;;;;;;4963387;28;20111;-67
2022/06/15 03:35:39;;;;;;;6.47;1.50;;;;;;;;;;4965963;28;20042;-67
2022/06/15 03:38:08;;;;;;;8.32;1.83;;;;;;;;;;4964604;28;20503;-67
2022/06/15 03:40:35;;;;;;;9.35;2.03;;;;;;;;;;4948482;28;20225;-67
2022/06/15 03:43:01;;;;;;;8.95;1.67;;;;;;;;;;4962915;28;20331;-66
2022/06/15 03:45:27;;;;;;;6.88;1.58;;;;;;;;;;4966878;28;20068;-67
2022/06/15 03:47:57;;;;;;;10.70;1.58;;;;;;;;;;4957283;28;20084;-67
2022/06/15 03:50:27;;;;;;;9.40;1.50;;;;;;;;;;4960015;28;20034;-67
2022/06/15 03:52:53;;;;;;;6.63;1.52;;;;;;;;;;4961212;28;20390;-67
2022/06/15 03:55:20;;;;;;;8.02;1.77;;;;;;;;;;4969948;28;20094;-67
2022/06/15 03:57:48;;;;;;;6.80;1.70;;;;;;;;;;4959459;28;20504;-67
2022/06/15 04:00:17;;;;;;;8.93;1.75;;;;;;;;;;4964963;28;20338;-67
2022/06/15 04:02:48;;;;;;;11.02;2.05;;;;;;;;;;4956128;28;20133;-67
2022/06/15 04:05:19;;;;;;;11.68;2.00;;;;;;;;;;4965155;28;20463;-67
2022/06/15 04:10:33;;;;;;;6.57;1.67;;;;;;;;;;4965456;28;20128;-67
2022/06/15 04:13:00;;;;;;;10.80;1.95;;;;;;;;;;4959136;28;20432;-68
2022/06/15 04:15:28;;;;;;;9.32;1.85;;;;;;;;;;4962619;28;20040;-68
2022/06/15 04:17:56;;;;;;;8.10;1.80;;;;;;;;;;4958197;28;20195;-67
2022/06/15 04:20:36;;;;;;;8.02;2.05;;;;;;;;;;4963572;28;20038;-67
2022/06/15 04:23:14;;;;;;;7.05;1.92;;;;;;;;;;4961521;28;20038;-66
2022/06/15 04:25:47;;;;;;;8.45;1.65;;;;;;;;;;4960951;28;20054;-68
2022/06/15 04:28:16;;;;;;;6.15;1.80;;;;;;;;;;4962017;28;20468;-68
2022/06/15 04:30:43;;;;;;;8.05;2.22;;;;;;;;;;4945307;28;20046;-68
2022/06/15 04:33:10;;;;;;;9.50;2.20;;;;;;;;;;4933845;28;20602;-67
2022/06/15 04:35:38;;;;;;;8.85;2.38;;;;;;;;;;4950397;28;20062;-68
2022/06/15 04:38:06;;;;;;;8.68;1.80;;;;;;;;;;4951606;28;20030;-68
2022/06/15 04:40:37;;;;;;;9.85;2.22;;;;;;;;;;4948600;28;20030;-68
2022/06/15 04:43:06;;;;;;;10.38;1.98;;;;;;;;;;4952676;28;20022;-68
2022/06/15 04:45:35;;;;;;;7.85;1.65;;;;;;;;;;4946373;28;20045;-68
2022/06/15 04:48:02;;;;;;;6.93;1.67;;;;;;;;;;4946000;28;20026;-67
2022/06/15 04:50:30;;;;;;;7.18;2.08;;;;;;;;;;4949273;28;20440;-68
2022/06/15 04:52:57;;;;;;;6.97;1.55;;;;;;;;;;4930367;28;20272;-67
2022/06/15 04:55:25;;;;;;;7.93;1.42;;;;;;;;;;4948084;28;20417;-68
2022/06/15 04:57:54;;;;;;;6.55;1.60;;;;;;;;;;4944118;28;20631;-68
2022/06/15 05:00:21;;;;;;;7.13;1.50;;;;;;;;;;4946838;28;20045;-68
2022/06/15 05:02:47;;;;;;;5.13;1.63;;;;;;;;;;4943829;28;20030;-68
2022/06/15 05:05:18;;;;;;;6.80;1.90;;;;;;;;;;4955610;28;20031;-66
2022/06/15 05:07:45;;;;;;;9.30;1.67;;;;;;;;;;4952136;28;20133;-72
2022/06/15 05:10:22;;;;;;;10.23;1.63;;;;;;;;;;4963195;28;20568;-72
2022/06/15 05:12:48;;;;;;;6.43;1.42;;;;;;;;;;4952102;28;20092;-72
2022/06/15 05:15:15;;;;;;;9.40;1.80;;;;;;;;;;4936431;28;20035;-71
2022/06/15 05:17:42;;;;;;;7.22;1.63;;;;;;;;;;4955462;28;20531;-67
2022/06/15 05:20:15;;;;;;;8.88;1.50;;;;;;;;;;4953593;28;20073;-67
2022/06/15 05:22:42;;;;;;;9.25;1.73;;;;;;;;;;4967165;28;20035;-71
2022/06/15 05:25:09;;;;;;;8.00;1.58;;;;;;;;;;4953355;28;20026;-72
2022/06/15 05:27:39;;;;;;;9.93;1.73;;;;;;;;;;4951240;28;20027;-71
2022/06/15 05:30:06;;;;;;;13.65;2.55;;;;;;;;;;4968137;28;20378;-71
2022/06/15 05:32:32;;;;;;;7.68;1.65;;;;;;;;;;4967688;28;20166;-71
2022/06/15 05:35:00;;;;;;;8.48;1.80;;;;;;;;;;4967650;28;22503;-66
2022/06/15 05:37:27;;;;;;;6.10;1.52;;;;;;;;;;4967932;28;20030;-66
2022/06/15 05:39:54;;;;;;;9.50;1.67;;;;;;;;;;4948846;28;20126;-66
2022/06/15 05:42:20;;;;;;;7.10;1.60;;;;;;;;;;4964453;28;20041;-66
2022/06/15 05:44:49;;;;;;;6.22;1.58;;;;;;;;;;4961318;28;20042;-66
2022/06/15 05:47:15;;;;;;;7.75;1.50;;;;;;;;;;4959809;28;20031;-66
2022/06/15 05:49:42;;;;;;;9.18;1.58;;;;;;;;;;4962145;28;20038;-66
2022/06/15 05:52:08;;;;;;;8.43;1.60;;;;;;;;;;4959550;28;20499;-66
2022/06/15 05:54:36;;;;;;;6.72;1.70;;;;;;;;;;4966774;28;20038;-66
2022/06/15 05:57:10;;;;;;;12.07;4.32;;;;;;;;;;4957391;28;20544;-66
2022/06/15 05:59:37;;;;;;;12.70;6.22;;;;;;;;;;4967259;28;20440;-66
2022/06/15 06:02:05;;;;;;;15.52;7.95;;;;;;;;;;4963498;28;20631;-66
2022/06/15 06:04:35;;;;;;;22.27;9.00;;;;;;;;;;4969557;28;20444;-66
2022/06/15 06:07:03;;;;;;;21.35;10.57;;;;;;;;;;4949747;28;20030;-68
2022/06/15 06:09:31;;;;;;;18.38;8.68;;;;;;;;;;4960254;28;20037;-68
2022/06/15 06:11:58;;;;;;;17.50;7.65;;;;;;;;;;4942308;28;20383;-67
2022/06/15 06:14:26;;;;;;;13.45;5.55;;;;;;;;;;4967828;28;20045;-67
2022/06/15 06:16:53;;;;;;;17.98;4.95;;;;;;;;;;4965659;28;20042;-67
2022/06/15 06:19:20;;;;;;;13.38;4.00;;;;;;;;;;4966743;28;20144;-67
2022/06/15 06:21:48;;;;;;;13.27;2.90;;;;;;;;;;4963537;28;20397;-68
2022/06/15 06:24:15;;;;;;;16.30;4.35;;;;;;;;;;4968518;28;20129;-68
2022/06/15 06:26:43;;;;;;;18.92;5.47;;;;;;;;;;4964580;28;20022;-67
2022/06/15 06:29:15;;;;;;;20.92;3.92;;;;;;;;;;4971832;28;20582;-67
2022/06/15 06:31:43;;;;;;;18.75;4.10;;;;;;;;;;4964949;28;20064;-67
2022/06/15 06:34:11;;;;;;;12.32;3.28;;;;;;;;;;4957127;28;20637;-68
2022/06/15 06:36:44;;;;;;;15.70;4.20;;;;;;;;;;4959294;28;20263;-67
2022/06/15 06:39:17;;;;;;;13.52;4.75;;;;;;;;;;4956203;28;20528;-68
2022/06/15 06:41:44;;;;;;;18.30;4.05;;;;;;;;;;4958448;28;20034;-68
2022/06/15 06:44:12;;;;;;;18.25;3.95;;;;;;;;;;4963712;28;20129;-68
2022/06/15 06:46:42;;;;;;;21.08;4.43;;;;;;;;;;4950621;28;20129;-68
2022/06/15 06:49:10;;;;;;;13.98;3.75;;;;;;;;;;4961044;28;20129;-68
2022/06/15 06:51:38;;;;;;;16.45;3.58;;;;;;;;;;4966647;28;20552;-68
2022/06/15 06:54:06;;;;;;;16.85;3.17;;;;;;;;;;4961419;28;20042;-67
2022/06/15 06:56:36;;;;;;;10.88;2.30;;;;;;;;;;4963529;28;20197;-67
2022/06/15 06:59:06;;;;;;;12.70;2.00;;;;;;;;;;4956279;28;20134;-67
2022/06/15 07:01:33;;;;;;;14.07;1.80;;;;;;;;;;4962630;28;20035;-67
2022/06/15 07:03:59;;;;;;;12.77;2.10;;;;;;;;;;4960888;28;20046;-67
2022/06/15 07:06:25;;;;;;;8.27;1.48;;;;;;;;;;4962721;28;20030;-67
2022/06/15 07:08:51;;;;;;;8.85;1.50;;;;;;;;;;4958889;28;20173;-66
2022/06/15 07:11:18;;;;;;;10.13;1.40;;;;;;;;;;4965061;28;20190;-67
2022/06/15 07:13:44;;;;;;;11.15;1.73;;;;;;;;;;4962034;28;20038;-66
2022/06/15 07:16:12;;;;;;;7.97;1.73;;;;;;;;;;4958053;28;20230;-66
2022/06/15 07:18:38;;;;;;;11.40;1.63;;;;;;;;;;4958570;28;20035;-67
2022/06/15 07:21:06;;;;;;;10.43;1.75;;;;;;;;;;4952564;28;20026;-67
2022/06/15 07:23:32;;;;;;;10.93;1.80;;;;;;;;;;4952442;28;20034;-66
2022/06/15 07:25:58;;;;;;;13.07;1.80;;;;;;;;;;4956226;28;21525;-66
2022/06/15 07:28:24;;;;;;;8.13;1.55;;;;;;;;;;4956412;28;20106;-67
2022/06/15 07:30:50;;;;;;;12.25;1.80;;;;;;;;;;4939459;28;20033;-67
2022/06/15 07:33:16;;;;;;;8.77;1.67;;;;;;;;;;4947551;28;20548;-67
2022/06/15 07:35:43;;;;;;;8.93;1.80;;;;;;;;;;4941045;28;20101;-69
2022/06/15 07:38:09;;;;;;;7.43;1.65;;;;;;;;;;4944382;28;20034;-68
2022/06/15 07:40:35;;;;;;;10.93;1.77;;;;;;;;;;4947535;28;20126;-68
2022/06/15 07:43:01;;;;;;;9.68;2.03;;;;;;;;;;4939045;28;20113;-68
2022/06/15 07:45:27;;;;;;;10.25;1.58;;;;;;;;;;4937830;28;20027;-68
2022/06/15 07:50:39;;;;;;;8.85;1.40;;;;;;;;;;4941747;28;20124;-68
2022/06/15 07:53:07;;;;;;;9.45;1.30;;;;;;;;;;4941915;28;20267;-68
2022/06/15 07:55:36;;;;;;;6.03;1.30;;;;;;;;;;4949713;28;20133;-67
2022/06/15 07:58:03;;;;;;;7.05;1.60;;;;;;;;;;4928224;28;20039;-67
2022/06/15 08:00:31;;;;;;;6.60;1.20;;;;;;;;;;4946934;28;20041;-68
2022/06/15 08:02:58;;;;;;;9.18;1.48;;;;;;;;;;4937861;28;20031;-68
2022/06/15 08:05:27;;;;;;;11.65;1.70;;;;;;;;;;4931240;28;20027;-68
2022/06/15 08:07:54;;;;;;;8.80;1.60;;;;;;;;;;4939414;28;20205;-68
2022/06/15 08:10:23;;;;;;;8.68;1.38;;;;;;;;;;4943795;28;20052;-66
2022/06/15 08:12:51;;;;;;;6.82;1.15;;;;;;;;;;4942758;28;20039;-67
2022/06/15 08:15:18;;;;;;;6.18;1.30;;;;;;;;;;4940881;28;21384;-66
2022/06/15 08:17:48;;;;;;;8.90;1.50;;;;;;;;;;4938768;28;20504;-67
2022/06/15 08:20:17;;;;;;;7.82;1.20;;;;;;;;;;4934361;28;20027;-69
2022/06/15 08:22:47;;;;;;;8.32;1.20;;;;;;;;;;4943968;28;20036;-67
2022/06/15 08:25:17;;;;;;;5.38;1.35;;;;;;;;;;4946235;28;20019;-66
2022/06/15 08:27:43;;;;;;;6.03;1.10;;;;;;;;;;4939827;28;20046;-68
2022/06/15 08:30:11;;;;;;;8.82;1.58;;;;;;;;;;4945507;28;20027;-69
2022/06/15 08:32:39;;;;;;;9.27;1.73;;;;;;;;;;4952477;28;20039;-69
2022/06/15 08:35:08;;;;;;;10.85;1.45;;;;;;;;;;4953147;28;20022;-66
2022/06/15 08:37:36;;;;;;;8.85;1.50;;;;;;;;;;4949536;28;20058;-67
2022/06/15 08:40:04;;;;;;;5.30;1.17;;;;;;;;;;4941230;28;20109;-69
2022/06/15 08:42:49;;;;;;;9.23;1.40;;;;;;;;;;4948585;28;20126;-70
2022/06/15 08:45:26;;;;;;;7.75;1.42;;;;;;;;;;4954909;28;20031;-71
2022/06/15 08:48:02;;;;;;;7.95;1.67;;;;;;;;;;4949964;28;20031;-70
2022/06/15 08:51:05;;;;;;;8.55;1.30;;;;;;;;;;4953504;28;20320;-71
2022/06/15 08:53:52;;;;;;;7.43;1.60;;;;;;;;;;4877836;29;20044;-70
2022/06/15 08:56:22;;;;;;;6.00;1.38;;;;;;;;;;4880363;29;20532;-72
2022/06/15 08:59:08;;;;;;;8.88;1.90;;;;;;;;;;4860451;29;20057;-70
2022/06/15 09:01:34;;;;;;;;;;;;;;;;;;4874170;29;20606;-70
2022/06/15 09:04:12;;;;;;;14.15;1.92;;;;;;;;;;4875286;29;20037;-70
2022/06/15 09:07:00;;;;;;;11.05;1.60;;;;;;;;;;4863855;29;20040;-70
2022/06/15 09:09:33;;;;;;;10.35;1.67;;;;;;;;;;4863202;29;20530;-70
2022/06/15 09:15:12;;;;;;;7.30;1.45;;;;;;;;;;4872660;29;20173;-70
2022/06/15 09:17:39;;;;;;;9.52;1.25;;;;;;;;;;4873998;29;20096;-70
2022/06/15 09:20:11;;;;;;;8.25;1.38;;;;;;;;;;4873178;29;20147;-70
2022/06/15 09:22:39;;;;;;;9.82;1.70;;;;;;;;;;4876658;29;20096;-71
2022/06/15 09:25:22;;;;;;;7.25;1.55;;;;;;;;;;4876942;29;20813;-70
2022/06/15 09:27:52;;;;;;;9.70;1.33;;;;;;;;;;4920083;28;20066;-70
2022/06/15 09:30:18;;;;;;;11.80;1.40;;;;;;;;;;4949766;28;20385;-70
2022/06/15 09:32:48;;;;;;;16.00;1.90;;;;;;;;;;4944692;28;20549;-70
2022/06/15 09:35:21;;;;;;;9.88;1.63;;;;;;;;;;4954190;28;20027;-67
2022/06/15 09:37:50;;;;;;;8.25;1.70;;;;;;;;;;4946043;28;20119;-68
2022/06/15 09:40:16;;;;;;;7.90;1.52;;;;;;;;;;4936790;28;20602;-68
2022/06/15 09:42:42;;;;;;;14.40;1.80;;;;;;;;;;4935517;28;20030;-67
2022/06/15 09:45:08;;;;;;;10.05;1.45;;;;;;;;;;4941332;28;20137;-67
2022/06/15 09:47:50;;;;;;;12.77;1.70;;;;;;;;;;4950947;28;20350;-67
2022/06/15 09:50:17;;;;;;;11.75;1.80;;;;;;;;;;4949874;28;20031;-65
2022/06/15 09:53:01;;;;;;;10.25;1.27;;;;;;;;;;4954207;28;20047;-65
2022/06/15 09:55:45;;;;;;;6.80;1.63;;;;;;;;;;4950050;28;20023;-65
2022/06/15 09:58:16;;;;;;;10.48;1.55;;;;;;;;;;4938304;28;20451;-68
2022/06/15 10:00:47;;;;;;;6.43;1.42;;;;;;;;;;4941858;28;20135;-66
2022/06/15 10:03:34;;;;;;;5.97;1.40;;;;;;;;;;4944633;28;20046;-66
2022/06/15 10:06:23;;;;;;;9.70;1.55;;;;;;;;;;4930115;28;20023;-65
2022/06/15 10:08:50;;;;;;;6.93;1.40;;;;;;;;;;4933113;28;20072;-66
2022/06/15 10:11:21;;;;;;;7.93;1.52;;;;;;;;;;4937376;28;20034;-66
2022/06/15 10:13:49;;;;;;;7.10;1.35;;;;;;;;;;4948811;28;20039;-65
2022/06/15 10:16:27;;;;;;;7.60;1.60;;;;;;;;;;4956287;28;20355;-66
2022/06/15 10:18:59;;;;;;;8.18;1.50;;;;;;;;;;4942290;28;20050;-67
2022/06/15 10:21:28;;;;;;;11.75;1.60;;;;;;;;;;4949793;28;20039;-66
2022/06/15 10:24:13;;;;;;;6.28;1.40;;;;;;;;;;4943939;28;20035;-66
2022/06/15 10:26:48;;;;;;;7.47;1.52;;;;;;;;;;4946236;28;20031;-66
2022/06/15 10:29:24;;;;;;;9.95;1.80;;;;;;;;;;4956037;28;20059;-67
2022/06/15 10:32:10;;;;;;;8.60;1.60;;;;;;;;;;4961576;28;20080;-66
2022/06/15 10:34:46;;;;;;;8.98;1.60;;;;;;;;;;4968249;28;20157;-66
2022/06/15 10:37:25;;;;;;;7.05;1.70;;;;;;;;;;4961762;28;20031;-66
2022/06/15 10:39:54;;;;;;;8.27;1.30;;;;;;;;;;4963029;28;20503;-67
2022/06/15 10:42:29;;;;;;;7.57;1.50;;;;;;;;;;4946175;28;20069;-66
2022/06/15 10:45:01;;;;;;;7.68;1.33;;;;;;;;;;4961863;28;20560;-65
2022/06/15 10:48:00;;;;;;;4.55;1.23;;;;;;;;;;4963426;28;20027;-66
2022/06/15 10:50:45;;;;;;;5.85;1.45;;;;;;;;;;4915315;28;20045;-66
2022/06/15 10:53:47;;;;;;;7.53;1.40;;;;;;;;;;4964071;28;20026;-65
2022/06/15 11:02:13;;;;;;;8.20;1.30;;;;;;;;;;4908406;29;20083;-66
2022/06/15 11:04:46;;;;;;;5.07;1.40;;;;;;;;;;4904191;29;20054;-67
2022/06/15 11:07:15;;;;;;;8.48;1.40;;;;;;;;;;4902378;29;20054;-66
2022/06/15 11:09:44;;;;;;;6.97;1.60;;;;;;;;;;4904656;29;20035;-65
2022/06/15 11:12:24;;;;;;;10.43;1.50;;;;;;;;;;4908532;29;20514;-66
2022/06/15 11:14:54;;;;;;;6.85;1.50;;;;;;;;;;4903870;29;20040;-66
2022/06/15 11:20:07;;;;;;;5.85;1.45;;;;;;;;;;4904353;29;20238;-66
2022/06/15 11:22:34;;;;;;;6.93;1.55;;;;;;;;;;4891978;29;20040;-66
2022/06/15 11:25:05;;;;;;;7.53;1.50;;;;;;;;;;4899807;29;20035;-66
2022/06/15 11:27:31;;;;;;;7.28;1.55;;;;;;;;;;4908308;29;20039;-66
2022/06/15 11:30:20;;;;;;;6.63;1.67;;;;;;;;;;4921084;28;20082;-66
2022/06/15 11:33:02;;;;;;;8.63;1.67;;;;;;;;;;4953185;28;20351;-66
2022/06/15 11:35:28;;;;;;;5.88;1.40;;;;;;;;;;4946302;28;20061;-66
2022/06/15 11:38:07;;;;;;;8.90;1.63;;;;;;;;;;4957605;28;20848;-66
2022/06/15 11:40:33;;;;;;;7.22;1.75;;;;;;;;;;4965248;28;20515;-66
2022/06/15 11:43:01;;;;;;;7.43;1.33;;;;;;;;;;4947148;28;20065;-66
2022/06/15 11:45:44;;;;;;;7.15;1.50;;;;;;;;;;4958046;28;20129;-68
2022/06/15 11:48:10;;;;;;;6.65;1.42;;;;;;;;;;4968713;28;20033;-67
2022/06/15 11:50:47;;;;;;;9.23;1.70;;;;;;;;;;4958257;28;20452;-67
2022/06/15 11:53:35;;;;;;;6.53;1.30;;;;;;;;;;4959608;28;20110;-66
2022/06/15 11:56:14;;;;;;;4.57;1.30;;;;;;;;;;4960884;28;20031;-65
2022/06/15 11:59:02;;;;;;;7.15;2.00;;;;;;;;;;4953373;28;20100;-65
2022/06/15 12:01:48;;;;;;;5.65;1.40;;;;;;;;;;4962720;28;20034;-66
2022/06/15 12:04:34;;;;;;;8.95;1.70;;;;;;;;;;4964221;28;20319;-68
2022/06/15 12:07:20;;;;;;;5.47;1.50;;;;;;;;;;4963480;28;20340;-66
2022/06/15 12:10:00;;;;;;;6.45;1.23;;;;;;;;;;4964114;28;20027;-65
2022/06/15 12:12:45;;;;;;;6.93;1.30;;;;;;;;;;4971165;28;20141;-72
2022/06/15 12:15:31;;;;;;;5.05;1.25;;;;;;;;;;4970840;28;20034;-72
2022/06/15 12:18:15;;;;;;;7.63;1.35;;;;;;;;;;4967613;28;20030;-72
2022/06/15 12:21:14;;;;;;;4.57;1.13;;;;;;;;;;4965072;28;20040;-72
2022/06/15 12:23:56;;;;;;;10.25;1.45;;;;;;;;;;4900398;28;20137;-71
2022/06/15 12:26:27;;;;;;;;;;;;;;;;;;4915380;29;20028;-72
2022/06/15 12:29:13;;;;;;;5.65;1.30;;;;;;;;;;4911449;28;20046;-67
2022/06/15 12:31:57;;;;;;;5.63;1.25;;;;;;;;;;4891717;29;20561;-68
2022/06/15 12:34:53;;;;;;;4.97;1.10;;;;;;;;;;4911052;29;20512;-67
2022/06/15 12:37:43;;;;;;;7.35;1.15;;;;;;;;;;4867891;29;20032;-67
2022/06/15 12:40:27;;;;;;;5.45;1.10;;;;;;;;;;4886052;29;20075;-68
2022/06/15 12:42:58;;;;;;;5.47;1.05;;;;;;;;;;4880457;29;20320;-68
2022/06/15 12:45:48;;;;;;;4.97;0.98;;;;;;;;;;4860700;29;20083;-68
2022/06/15 12:48:22;;;;;;;6.82;1.00;;;;;;;;;;4873033;29;20053;-69
2022/06/15 12:50:58;;;;;;;4.38;1.10;;;;;;;;;;4846021;29;20168;-68
2022/06/15 12:53:51;;;;;;;3.72;1.05;;;;;;;;;;4865367;29;20049;-68
2022/06/15 12:56:20;;;;;;;7.10;1.38;;;;;;;;;;4851643;29;20049;-68
2022/06/15 12:58:55;;;;;;;5.18;1.30;;;;;;;;;;4836651;29;20413;-69
2022/06/15 13:01:24;;;;;;;5.85;1.10;;;;;;;;;;4845282;29;20049;-69
2022/06/15 13:03:53;;;;;;;5.15;1.25;;;;;;;;;;4853172;29;20490;-69
2022/06/15 13:06:31;;;;;;;5.57;1.33;;;;;;;;;;4859379;29;20096;-69
2022/06/15 13:09:02;;;;;;;8.15;1.30;;;;;;;;;;4856842;29;20166;-73
2022/06/15 13:11:29;;;;;;;6.30;1.10;;;;;;;;;;4849287;29;20037;-73
2022/06/15 13:14:09;;;;;;;6.35;1.02;;;;;;;;;;4872648;29;20056;-73
2022/06/15 13:16:37;;;;;;;7.25;1.10;;;;;;;;;;4887326;29;20040;-72
2022/06/15 13:19:04;;;;;;;8.60;1.70;;;;;;;;;;4885118;29;20059;-73
2022/06/15 13:21:49;;;;;;;10.10;1.50;;;;;;;;;;4890634;29;20127;-73
2022/06/15 13:24:16;;;;;;;6.50;1.35;;;;;;;;;;4879375;29;20133;-72
2022/06/15 13:26:42;;;;;;;8.02;1.30;;;;;;;;;;4876562;29;20051;-72
2022/06/15 13:29:17;;;;;;;5.47;1.25;;;;;;;;;;4887167;29;20194;-72
2022/06/15 13:31:45;;;;;;;7.18;1.40;;;;;;;;;;4900190;29;20402;-73
2022/06/15 13:34:15;;;;;;;8.98;1.13;;;;;;;;;;4956028;28;20046;-73
2022/06/15 13:36:43;;;;;;;7.05;1.58;;;;;;;;;;4953868;28;20034;-73
2022/06/15 13:39:47;;;;;;;9.60;1.63;;;;;;;;;;4944739;28;20544;-70
2022/06/15 13:42:28;;;;;;;7.93;1.50;;;;;;;;;;4957073;28;20443;-70
2022/06/15 13:45:10;;;;;;;5.93;1.48;;;;;;;;;;4954698;28;20045;-70
2022/06/15 13:47:39;;;;;;;7.07;1.00;;;;;;;;;;4967597;28;20026;-70
2022/06/15 13:50:06;;;;;;;7.85;1.13;;;;;;;;;;4966633;28;20476;-70
2022/06/15 13:52:34;;;;;;;7.85;1.10;;;;;;;;;;4967658;28;20492;-70
2022/06/15 13:55:12;;;;;;;6.43;1.20;;;;;;;;;;4962008;28;20332;-70
2022/06/15 13:57:48;;;;;;;9.68;1.50;;;;;;;;;;4966102;28;20026;-70
2022/06/15 14:00:34;;;;;;;5.60;1.23;;;;;;;;;;4969104;28;20141;-71
2022/06/15 14:03:19;;;;;;;6.45;1.25;;;;;;;;;;4960299;28;20403;-70
2022/06/15 14:06:03;;;;;;;8.88;1.40;;;;;;;;;;4968275;28;20393;-70
2022/06/15 14:08:50;;;;;;;6.25;1.25;;;;;;;;;;4965842;28;20509;-71
2022/06/15 14:11:27;;;;;;;7.05;1.38;;;;;;;;;;4966998;28;20042;-71
2022/06/15 14:14:02;;;;;;;8.30;1.52;;;;;;;;;;4961672;28;20038;-71
2022/06/15 14:16:48;;;;;;;9.30;1.90;;;;;;;;;;4971014;28;20034;-71
2022/06/15 14:19:46;;;;;;;5.78;1.10;;;;;;;;;;4964918;28;20029;-71
2022/06/15 14:22:22;;;;;;;7.10;1.08;;;;;;;;;;4893299;29;20040;-70
2022/06/15 14:24:49;;;;;;;5.57;1.20;;;;;;;;;;4909214;29;20062;-72
2022/06/15 14:27:25;;;;;;;8.00;1.40;;;;;;;;;;4889908;29;20063;-70
2022/06/15 14:29:53;;;;;;;7.32;1.30;;;;;;;;;;4902233;28;20057;-71
2022/06/15 14:32:34;;;;;;;5.93;1.13;;;;;;;;;;4909399;29;20150;-71
2022/06/15 14:35:05;;;;;;;7.25;1.35;;;;;;;;;;4904182;29;20219;-71
2022/06/15 14:37:31;;;;;;;7.07;1.40;;;;;;;;;;4909508;29;20150;-70
2022/06/15 14:39:58;;;;;;;6.60;1.33;;;;;;;;;;4889225;29;20172;-70
2022/06/15 14:42:53;;;;;;;3.90;1.17;;;;;;;;;;4908456;29;20044;-69
2022/06/15 14:45:18;;;;;;;5.57;1.25;;;;;;;;;;4907444;29;20143;-71
2022/06/15 14:47:52;;;;;;;7.47;1.30;;;;;;;;;;4904742;29;20479;-71
2022/06/15 14:50:20;;;;;;;7.70;1.63;;;;;;;;;;4890198;29;20759;-73
2022/06/15 14:52:48;;;;;;;6.18;1.30;;;;;;;;;;4904839;29;20036;-71
2022/06/15 14:55:28;;;;;;;6.18;1.20;;;;;;;;;;4910007;29;20620;-70
2022/06/15 14:58:09;;;;;;;10.68;1.45;;;;;;;;;;4934380;28;20057;-70
2022/06/15 15:00:35;;;;;;;9.35;1.52;;;;;;;;;;4963919;28;20626;-69
2022/06/15 15:03:02;;;;;;;8.13;1.73;;;;;;;;;;4960368;28;20036;-70
2022/06/15 15:05:30;;;;;;;8.43;1.50;;;;;;;;;;4958687;28;20023;-69
2022/06/15 15:08:15;;;;;;;9.75;1.67;;;;;;;;;;4956281;28;20528;-70
2022/06/15 15:10:41;;;;;;;6.55;1.30;;;;;;;;;;4943639;28;20035;-70
2022/06/15 15:13:22;;;;;;;7.18;1.25;;;;;;;;;;4963041;28;20042;-71
2022/06/15 15:15:53;;;;;;;6.18;1.40;;;;;;;;;;4966375;28;20190;-70
2022/06/15 15:18:22;;;;;;;7.65;1.40;;;;;;;;;;4973599;28;20479;-71
2022/06/15 15:20:49;;;;;;;8.93;1.50;;;;;;;;;;4968371;28;20034;-67
2022/06/15 15:23:19;;;;;;;11.35;1.45;;;;;;;;;;4974540;28;20036;-67
2022/06/15 15:25:54;;;;;;;6.13;1.67;;;;;;;;;;4958303;28;20029;-71
2022/06/15 15:34:12;;;;;;;8.95;1.52;;;;;;;;;;4964112;28;21319;-69